createdAt,value
2022-12-23T00:00:59.213Z,99236.06
2022-12-23T00:03:26.745Z,99234.22
2022-12-23T00:05:53.631Z,99232.47
2022-12-23T00:08:21.687Z,99234.06
2022-12-23T00:10:49.731Z,99228.50
2022-12-23T00:13:16.997Z,99233.41
2022-12-23T00:15:43.319Z,99229.91
2022-12-23T00:18:09.636Z,99231.94
2022-12-23T00:20:35.953Z,99231.28
2022-12-23T00:23:02.414Z,99235.44
2022-12-23T00:25:28.731Z,99236.44
2022-12-23T00:27:55.033Z,99229.47
2022-12-23T00:30:21.339Z,99223.25
2022-12-23T00:32:47.673Z,99230.41
2022-12-23T00:35:14.132Z,99235.53
2022-12-23T00:37:40.442Z,99230.25
2022-12-23T00:40:09.486Z,99230.75
2022-12-23T00:42:35.800Z,99244.41
2022-12-23T00:45:02.141Z,99237.09
2022-12-23T00:47:28.440Z,99229.47
2022-12-23T00:49:54.744Z,99231.72
2022-12-23T00:52:21.115Z,99240.47
2022-12-23T00:54:47.425Z,99239.19
2022-12-23T00:57:13.744Z,99240.16
2022-12-23T00:59:40.042Z,99236.97
2022-12-23T01:02:06.721Z,99238.84
2022-12-23T01:04:33.420Z,99236.28
2022-12-23T01:06:59.911Z,99242.03
2022-12-23T01:09:26.569Z,99241.09
2022-12-23T01:11:52.863Z,99245.06
2022-12-23T01:14:19.354Z,99247.31
2022-12-23T01:16:45.837Z,99251.13
2022-12-23T01:19:12.425Z,99247.47
2022-12-23T01:21:38.970Z,99249.53
2022-12-23T01:24:05.561Z,99240.16
2022-12-23T01:26:32.045Z,99250.19
2022-12-23T01:28:58.851Z,99239.50
2022-12-23T01:31:26.594Z,99237.88
2022-12-23T01:33:54.164Z,99240.44
2022-12-23T01:36:21.404Z,99243.16
2022-12-23T01:38:48.037Z,99254.13
2022-12-23T01:41:23.811Z,99252.06
2022-12-23T01:43:51.897Z,99256.06
2022-12-23T01:46:18.399Z,99261.97
2022-12-23T01:48:49.523Z,99255.75
2022-12-23T01:51:21.471Z,99268.50
2022-12-23T01:53:52.776Z,99257.47
2022-12-23T01:56:24.703Z,99263.72
2022-12-23T01:58:57.317Z,99259.94
2022-12-23T02:01:24.588Z,99257.22
2022-12-23T02:03:55.255Z,99266.47
2022-12-23T02:06:32.731Z,99266.72
2022-12-23T02:08:59.160Z,99259.13
2022-12-23T02:12:00.855Z,99264.16
2022-12-23T02:14:59.123Z,99268.97
2022-12-23T02:17:36.845Z,99266.44
2022-12-23T02:20:28.317Z,99268.50
2022-12-23T02:23:39.315Z,99272.66
2022-12-23T02:26:20.409Z,99279.00
2022-12-23T02:28:55.624Z,99275.50
2022-12-23T02:31:32.254Z,99274.53
2022-12-23T02:34:08.654Z,99273.59
2022-12-23T02:36:54.013Z,99281.22
2022-12-23T02:39:42.069Z,99279.34
2022-12-23T02:42:22.158Z,99284.91
2022-12-23T02:44:59.179Z,99278.22
2022-12-23T02:47:36.037Z,99281.53
2022-12-23T02:50:08.714Z,99282.97
2022-12-23T02:52:38.340Z,99279.00
2022-12-23T02:55:13.323Z,99286.63
2022-12-23T02:57:46.055Z,99286.00
2022-12-23T03:00:13.737Z,99287.00
2022-12-23T03:02:42.008Z,99281.25
2022-12-23T03:05:28.262Z,99288.75
2022-12-23T03:08:02.672Z,99288.91
2022-12-23T03:10:44.942Z,99299.56
2022-12-23T03:13:42.367Z,99292.56
2022-12-23T03:16:24.539Z,99294.97
2022-12-23T03:19:12.448Z,99301.97
2022-12-23T03:22:06.995Z,99305.44
2022-12-23T03:24:46.589Z,99304.66
2022-12-23T03:27:40.042Z,99316.00
2022-12-23T03:30:13.704Z,99321.44
2022-12-23T03:32:52.394Z,99318.56
2022-12-23T03:35:23.414Z,99324.78
2022-12-23T03:37:54.103Z,99326.50
2022-12-23T03:40:27.979Z,99323.38
2022-12-23T03:43:03.924Z,99331.63
2022-12-23T03:45:39.453Z,99334.47
2022-12-23T03:48:15.223Z,99329.72
2022-12-23T03:50:43.166Z,99329.88
2022-12-23T03:53:17.328Z,99334.97
2022-12-23T03:55:58.731Z,99335.09
2022-12-23T03:58:37.590Z,99339.09
2022-12-23T04:01:03.838Z,99341.13
2022-12-23T04:04:08.967Z,99343.84
2022-12-23T04:06:59.704Z,99348.13
2022-12-23T04:09:28.371Z,99344.66
2022-12-23T04:11:55.202Z,99349.59
2022-12-23T04:14:22.577Z,99352.28
2022-12-23T04:16:53.465Z,99356.47
2022-12-23T04:19:19.907Z,99350.72
2022-12-23T04:21:46.241Z,99358.69
2022-12-23T04:24:12.551Z,99362.22
2022-12-23T04:26:38.867Z,99366.34
2022-12-23T04:29:05.188Z,99367.47
2022-12-23T04:31:31.751Z,99366.34
2022-12-23T04:33:58.161Z,99366.16
2022-12-23T04:36:24.479Z,99361.53
2022-12-23T04:38:50.775Z,99362.78
2022-12-23T04:41:17.083Z,99368.84
2022-12-23T04:43:47.759Z,99360.72
2022-12-23T04:46:17.383Z,99357.53
2022-12-23T04:48:43.712Z,99364.38
2022-12-23T04:51:10.033Z,99358.34
2022-12-23T04:53:36.762Z,99359.00
2022-12-23T04:56:03.646Z,99360.75
2022-12-23T04:58:30.068Z,99366.16
2022-12-23T05:01:08.321Z,99368.69
2022-12-23T05:03:35.292Z,99370.63
2022-12-23T05:06:01.701Z,99364.13
2022-12-23T05:08:28.296Z,99372.38
2022-12-23T05:10:54.945Z,99377.78
2022-12-23T05:13:21.473Z,99373.50
2022-12-23T05:15:52.680Z,99384.78
2022-12-23T05:18:20.107Z,99384.16
2022-12-23T05:20:46.747Z,99391.81
2022-12-23T05:23:13.105Z,99397.31
2022-12-23T05:25:39.982Z,99405.13
2022-12-23T05:28:06.477Z,99406.72
2022-12-23T05:30:32.767Z,99406.59
2022-12-23T05:32:59.161Z,99409.78
2022-12-23T05:35:26.779Z,99416.94
2022-12-23T05:37:54.551Z,99423.31
2022-12-23T05:40:24.939Z,99423.31
2022-12-23T05:42:53.294Z,99428.81
2022-12-23T05:45:19.673Z,99430.56
2022-12-23T05:47:46.277Z,99436.59
2022-12-23T05:50:12.845Z,99442.31
2022-12-23T05:52:39.594Z,99434.34
2022-12-23T05:55:06.470Z,99432.28
2022-12-23T05:57:32.787Z,99433.69
2022-12-23T05:59:59.098Z,99444.88
2022-12-23T06:02:25.542Z,99440.53
2022-12-23T06:04:51.947Z,99439.72
2022-12-23T06:07:18.265Z,99439.34
2022-12-23T06:09:44.565Z,99437.34
2022-12-23T06:12:10.882Z,99444.38
2022-12-23T06:14:37.186Z,99448.16
2022-12-23T06:17:03.556Z,99462.75
2022-12-23T06:19:29.962Z,99467.47
2022-12-23T06:21:56.285Z,99458.91
2022-12-23T06:24:22.580Z,99459.13
2022-12-23T06:26:54.883Z,99466.34
2022-12-23T06:29:23.251Z,99458.75
2022-12-23T06:31:49.601Z,99468.47
2022-12-23T06:34:15.975Z,99482.72
2022-12-23T06:36:42.296Z,99484.63
2022-12-23T06:39:10.353Z,99491.91
2022-12-23T06:41:36.672Z,99492.81
2022-12-23T06:44:03.111Z,99487.28
2022-12-23T06:46:29.516Z,99492.69
2022-12-23T06:48:55.886Z,99492.69
2022-12-23T06:51:22.219Z,99504.72
2022-12-23T06:53:48.525Z,99504.22
2022-12-23T06:56:14.886Z,99503.03
2022-12-23T06:58:41.217Z,99502.53
2022-12-23T07:01:08.084Z,99506.28
2022-12-23T07:03:36.631Z,99510.13
2022-12-23T07:06:03.127Z,99510.56
2022-12-23T07:08:29.473Z,99504.97
2022-12-23T07:10:59.787Z,99516.59
2022-12-23T07:13:26.882Z,99519.41
2022-12-23T07:15:53.559Z,99533.09
2022-12-23T07:18:22.179Z,99528.56
2022-12-23T07:20:49.091Z,99533.50
2022-12-23T07:23:15.733Z,99531.59
2022-12-23T07:25:42.265Z,99530.19
2022-12-23T07:28:08.570Z,99537.44
2022-12-23T07:30:35.690Z,99535.00
2022-12-23T07:33:03.190Z,99535.19
2022-12-23T07:35:29.473Z,99531.88
2022-12-23T07:37:56.513Z,99523.16
2022-12-23T07:40:24.188Z,99534.97
2022-12-23T07:42:54.893Z,99536.09
2022-12-23T07:45:21.455Z,99549.22
2022-12-23T07:47:47.873Z,99550.19
2022-12-23T07:50:14.240Z,99546.31
2022-12-23T07:52:40.576Z,99540.41
2022-12-23T07:55:07.221Z,99546.00
2022-12-23T07:57:33.552Z,99537.78
2022-12-23T07:59:59.858Z,99537.25
2022-12-23T08:02:26.298Z,99539.47
2022-12-23T08:04:52.874Z,99540.88
2022-12-23T08:07:19.200Z,99556.09
2022-12-23T08:09:45.509Z,99556.28
2022-12-23T08:12:11.819Z,99563.41
2022-12-23T08:14:38.122Z,99569.28
2022-12-23T08:17:04.557Z,99562.19
2022-12-23T08:19:30.925Z,99573.31
2022-12-23T08:21:57.227Z,99580.91
2022-12-23T08:24:23.526Z,99580.44
2022-12-23T08:26:49.984Z,99576.44
2022-12-23T08:29:16.326Z,99578.03
2022-12-23T08:31:42.680Z,99581.41
2022-12-23T08:34:09.135Z,99573.31
2022-12-23T08:36:36.215Z,99578.59
2022-12-23T08:39:06.557Z,99569.00
2022-12-23T08:41:37.377Z,99578.03
2022-12-23T08:44:03.895Z,99574.53
2022-12-23T08:46:30.342Z,99583.63
2022-12-23T08:48:56.762Z,99588.06
2022-12-23T08:51:24.507Z,99593.47
2022-12-23T08:53:59.565Z,99584.25
2022-12-23T08:56:29.629Z,99591.16
2022-12-23T08:58:56.738Z,99584.63
2022-12-23T09:01:26.121Z,99578.50
2022-12-23T09:03:53.564Z,99585.44
2022-12-23T09:06:29.949Z,99587.38
2022-12-23T09:08:57.496Z,99583.16
2022-12-23T09:11:26.608Z,99591.56
2022-12-23T09:13:53.525Z,99604.34
2022-12-23T09:16:20.382Z,99601.38
2022-12-23T09:18:46.715Z,99593.97
2022-12-23T09:21:15.235Z,99590.56
2022-12-23T09:23:41.722Z,99587.50
2022-12-23T09:26:09.560Z,99597.09
2022-12-23T09:28:36.365Z,99586.53
2022-12-23T09:31:07.810Z,99589.25
2022-12-23T09:33:34.339Z,99592.09
2022-12-23T09:36:01.911Z,99585.75
2022-12-23T09:38:28.401Z,99601.72
2022-12-23T09:41:17.867Z,99603.75
2022-12-23T09:44:06.369Z,99604.03
2022-12-23T09:46:35.050Z,99598.22
2022-12-23T09:49:15.403Z,99602.16
2022-12-23T09:51:41.731Z,99603.34
2022-12-23T09:54:17.087Z,99599.16
2022-12-23T09:57:08.124Z,99598.66
2022-12-23T10:00:09.810Z,99596.94
2022-12-23T10:03:07.672Z,99583.44
2022-12-23T10:06:02.867Z,99583.75
2022-12-23T10:08:39.754Z,99577.34
2022-12-23T10:11:21.172Z,99570.28
2022-12-23T10:13:52.213Z,99579.00
2022-12-23T10:16:18.508Z,99577.22
2022-12-23T10:18:55.368Z,99561.75
2022-12-23T10:21:28.213Z,99566.28
2022-12-23T10:23:55.229Z,99574.44
2022-12-23T10:26:32.149Z,99561.03
2022-12-23T10:29:19.076Z,99562.91
2022-12-23T10:32:19.209Z,99562.97
2022-12-23T10:35:15.610Z,99563.50
2022-12-23T10:37:46.078Z,99560.97
2022-12-23T10:40:49.859Z,99557.91
2022-12-23T10:43:50.226Z,99557.13
2022-12-23T10:46:54.104Z,99550.44
2022-12-23T10:49:53.993Z,99553.50
2022-12-23T10:52:23.480Z,99549.78
2022-12-23T10:54:49.780Z,99555.63
2022-12-23T10:57:18.800Z,99549.56
2022-12-23T10:59:45.138Z,99552.22
2022-12-23T11:02:11.552Z,99552.00
2022-12-23T11:04:39.713Z,99551.09
2022-12-23T11:07:42.944Z,99557.06
2022-12-23T11:10:04.281Z,99552.50
2022-12-23T11:12:42.483Z,99542.22
2022-12-23T11:15:30.827Z,99536.06
2022-12-23T11:18:01.982Z,99547.53
2022-12-23T11:20:28.767Z,99526.06
2022-12-23T11:22:58.007Z,99535.16
2022-12-23T11:25:29.313Z,99538.59
2022-12-23T11:28:20.293Z,99535.16
2022-12-23T11:30:56.662Z,99531.19
2022-12-23T11:33:27.901Z,99522.16
2022-12-23T11:36:23.566Z,99512.72
2022-12-23T11:39:14.309Z,99507.84
2022-12-23T11:41:46.505Z,99503.38
2022-12-23T11:44:38.095Z,99492.06
2022-12-23T11:47:40.834Z,99483.63
2022-12-23T11:50:20.144Z,99482.31
2022-12-23T11:52:52.466Z,99474.00
2022-12-23T11:55:31.299Z,99464.75
2022-12-23T11:57:57.669Z,99464.75
2022-12-23T12:00:34.190Z,99468.56
2022-12-23T12:03:03.471Z,99465.69
2022-12-23T12:05:46.221Z,99462.03
2022-12-23T12:08:20.962Z,99458.19
2022-12-23T12:10:52.404Z,99443.53
2022-12-23T12:13:32.364Z,99435.38
2022-12-23T12:16:13.686Z,99426.59
2022-12-23T12:18:43.368Z,99426.59
2022-12-23T12:21:14.931Z,99421.69
2022-12-23T12:24:14.739Z,99417.53
2022-12-23T12:26:41.405Z,99411.31
2022-12-23T12:29:18.358Z,99420.22
2022-12-23T12:31:50.675Z,99417.47
2022-12-23T12:34:29.876Z,99424.09
2022-12-23T12:37:04.329Z,99417.81
2022-12-23T12:39:36.104Z,99409.09
2022-12-23T12:42:14.494Z,99414.47
2022-12-23T12:44:55.620Z,99412.09
2022-12-23T12:50:23.235Z,99401.69
2022-12-23T12:52:53.252Z,99401.66
2022-12-23T12:55:26.053Z,99404.84
2022-12-23T12:57:52.379Z,99412.31
2022-12-23T13:00:22.757Z,99401.66
2022-12-23T13:03:10.610Z,99399.84
2022-12-23T13:05:59.678Z,99399.00
2022-12-23T13:08:54.610Z,99400.56
2022-12-23T13:11:29.832Z,99385.59
2022-12-23T13:14:17.139Z,99380.94
2022-12-23T13:16:52.434Z,99378.22
2022-12-23T13:19:33.513Z,99379.56
2022-12-23T13:22:15.352Z,99365.25
2022-12-23T13:25:12.523Z,99354.59
2022-12-23T13:27:47.643Z,99353.34
2022-12-23T13:30:16.475Z,99357.56
2022-12-23T13:33:07.683Z,99353.34
2022-12-23T13:36:09.279Z,99355.00
2022-12-23T13:39:06.535Z,99350.16
2022-12-23T13:41:37.082Z,99355.56
2022-12-23T13:44:05.800Z,99351.09
2022-12-23T13:47:09.720Z,99354.88
2022-12-23T13:49:59.549Z,99343.22
2022-12-23T13:52:41.324Z,99341.09
2022-12-23T13:55:43.911Z,99326.94
2022-12-23T13:58:19.864Z,99320.81
2022-12-23T14:00:46.414Z,99318.03
2022-12-23T14:03:24.022Z,99319.84
2022-12-23T14:05:52.650Z,99323.00
2022-12-23T14:08:18.934Z,99319.66
2022-12-23T14:11:18.442Z,99313.88
2022-12-23T14:13:50.841Z,99306.31
2022-12-23T14:16:55.004Z,99305.22
2022-12-23T14:19:30.252Z,99299.34
2022-12-23T14:22:21.516Z,99287.66
2022-12-23T14:25:00.136Z,99282.72
2022-12-23T14:28:01.661Z,99274.13
2022-12-23T14:30:44.353Z,99280.78
2022-12-23T14:33:25.162Z,99278.69
2022-12-23T14:35:59.078Z,99264.31
2022-12-23T14:38:32.468Z,99271.22
2022-12-23T14:41:21.200Z,99263.69
2022-12-23T14:43:51.125Z,99256.13
2022-12-23T14:46:35.576Z,99256.50
2022-12-23T14:49:29.885Z,99253.78
2022-12-23T14:51:48.754Z,99244.19
2022-12-23T14:54:15.587Z,99245.44
2022-12-23T14:56:57.588Z,99238.56
2022-12-23T14:59:37.447Z,99236.16
2022-12-23T15:02:17.249Z,99232.94
2022-12-23T15:04:52.925Z,99230.41
2022-12-23T15:07:36.270Z,99224.84
2022-12-23T15:10:08.558Z,99210.78
2022-12-23T15:12:38.555Z,99201.19
2022-12-23T15:15:13.260Z,99211.31
2022-12-23T15:17:39.835Z,99211.44
2022-12-23T15:20:24.319Z,99220.47
2022-12-23T15:22:50.943Z,99227.59
2022-12-23T15:25:33.627Z,99228.22
2022-12-23T15:28:02.808Z,99228.34
2022-12-23T15:30:34.351Z,99215.34
2022-12-23T15:33:04.227Z,99212.41
2022-12-23T15:35:34.593Z,99210.22
2022-12-23T15:38:02.298Z,99212.63
2022-12-23T15:40:32.169Z,99202.00
2022-12-23T15:42:59.130Z,99194.72
2022-12-23T15:45:35.275Z,99182.72
2022-12-23T15:48:03.321Z,99182.22
2022-12-23T15:50:30.617Z,99172.41
2022-12-23T15:53:04.258Z,99181.88
2022-12-23T15:55:32.911Z,99174.69
2022-12-23T15:58:00.655Z,99166.28
2022-12-23T16:00:40.649Z,99168.66
2022-12-23T16:03:32.670Z,99169.94
2022-12-23T16:06:09.823Z,99172.31
2022-12-23T16:08:37.688Z,99174.81
2022-12-23T16:11:13.817Z,99176.47
2022-12-23T16:13:46.711Z,99173.94
2022-12-23T16:16:30.765Z,99176.59
2022-12-23T16:18:58.249Z,99175.56
2022-12-23T16:21:30.590Z,99167.88
2022-12-23T16:23:57.882Z,99169.78
2022-12-23T16:26:24.602Z,99163.59
2022-12-23T16:28:54.491Z,99149.72
2022-12-23T16:31:21.359Z,99146.22
2022-12-23T16:33:47.695Z,99143.41
2022-12-23T16:36:31.547Z,99138.78
2022-12-23T16:39:13.848Z,99132.28
2022-12-23T16:41:40.164Z,99121.81
2022-12-23T16:44:06.537Z,99118.16
2022-12-23T16:46:35.989Z,99114.66
2022-12-23T16:49:05.292Z,99112.13
2022-12-23T16:51:31.951Z,99105.72
2022-12-23T16:53:58.320Z,99089.63
2022-12-23T16:56:28.381Z,99090.22
2022-12-23T16:58:54.712Z,99075.94
2022-12-23T17:01:22.779Z,99071.22
2022-12-23T17:03:49.935Z,99075.09
2022-12-23T17:06:17.094Z,99067.31
2022-12-23T17:08:43.457Z,99062.50
2022-12-23T17:11:16.103Z,99069.00
2022-12-23T17:13:42.509Z,99064.09
2022-12-23T17:16:14.754Z,99057.41
2022-12-23T17:18:41.355Z,99051.88
2022-12-23T17:21:23.202Z,99043.44
2022-12-23T17:23:53.070Z,99045.34
2022-12-23T17:26:19.438Z,99043.28
2022-12-23T17:28:45.788Z,99038.00
2022-12-23T17:31:16.221Z,99044.84
2022-12-23T17:33:44.545Z,99047.75
2022-12-23T17:36:11.724Z,99043.94
2022-12-23T17:38:38.133Z,99037.25
2022-12-23T17:41:04.774Z,99036.25
2022-12-23T17:43:31.223Z,99037.53
2022-12-23T17:45:57.702Z,99034.03
2022-12-23T17:48:28.145Z,99033.13
2022-12-23T17:50:57.890Z,99034.50
2022-12-23T17:53:24.209Z,99042.69
2022-12-23T17:55:50.558Z,99052.53
2022-12-23T17:58:16.873Z,99045.50
2022-12-23T18:00:43.343Z,99045.16
2022-12-23T18:03:21.652Z,99042.00
2022-12-23T18:05:47.965Z,99051.06
2022-12-23T18:08:14.389Z,99050.31
2022-12-23T18:10:40.874Z,99055.09
2022-12-23T18:13:13.648Z,99050.13
2022-12-23T18:15:42.729Z,99034.63
2022-12-23T18:18:24.603Z,99049.44
2022-12-23T18:20:56.848Z,99054.75
2022-12-23T18:23:27.408Z,99078.34
2022-12-23T18:25:54.617Z,99061.75
2022-12-23T18:28:21.262Z,99056.59
2022-12-23T18:30:47.655Z,99048.63
2022-12-23T18:33:14.064Z,99049.72
2022-12-23T18:35:45.729Z,99055.34
2022-12-23T18:38:12.611Z,99047.91
2022-12-23T18:40:40.127Z,99035.19
2022-12-23T18:43:06.788Z,99041.44
2022-12-23T18:45:37.120Z,99060.81
2022-12-23T18:48:08.101Z,99066.53
2022-12-23T18:50:36.640Z,99059.06
2022-12-23T18:53:03.801Z,99044.41
2022-12-23T18:55:31.016Z,99041.63
2022-12-23T18:57:58.968Z,99038.19
2022-12-23T19:00:28.816Z,99045.38
2022-12-23T19:02:56.548Z,99036.75
2022-12-23T19:05:26.437Z,99041.88
2022-12-23T19:07:54.412Z,99054.28
2022-12-23T19:10:22.306Z,99059.44
2022-12-23T19:12:48.659Z,99052.44
2022-12-23T19:15:15.791Z,99055.47
2022-12-23T19:17:42.196Z,99056.09
2022-12-23T19:20:11.964Z,99060.34
2022-12-23T19:22:38.552Z,99080.19
2022-12-23T19:25:06.706Z,99085.41
2022-12-23T19:27:33.873Z,99085.91
2022-12-23T19:30:00.186Z,99071.69
2022-12-23T19:32:26.623Z,99074.97
2022-12-23T19:34:52.949Z,99086.03
2022-12-23T19:37:19.339Z,99097.47
2022-12-23T19:39:45.633Z,99094.78
2022-12-23T19:42:11.936Z,99094.44
2022-12-23T19:44:38.252Z,99100.69
2022-12-23T19:47:04.591Z,99104.56
2022-12-23T19:49:30.884Z,99112.63
2022-12-23T19:51:57.236Z,99115.59
2022-12-23T19:54:23.513Z,99107.97
2022-12-23T19:56:50.561Z,99109.91
2022-12-23T19:59:17.319Z,99123.22
2022-12-23T20:01:44.371Z,99123.38
2022-12-23T20:04:11.621Z,99130.00
2022-12-23T20:06:39.897Z,99132.38
2022-12-23T20:09:08.628Z,99139.88
2022-12-23T20:11:40.081Z,99146.06
2022-12-23T20:14:07.078Z,99142.75
2022-12-23T20:16:34.778Z,99136.09
2022-12-23T20:19:01.271Z,99120.56
2022-12-23T20:21:27.622Z,99127.91
2022-12-23T20:23:53.988Z,99132.91
2022-12-23T20:26:20.872Z,99134.06
2022-12-23T20:28:47.191Z,99133.28
2022-12-23T20:31:21.867Z,99131.47
2022-12-23T20:33:49.748Z,99132.72
2022-12-23T20:36:18.622Z,99138.84
2022-12-23T20:38:47.079Z,99139.94
2022-12-23T20:41:16.908Z,99145.53
2022-12-23T20:43:46.066Z,99148.91
2022-12-23T20:46:19.705Z,99156.06
2022-12-23T20:48:46.887Z,99161.53
2022-12-23T20:51:15.900Z,99160.41
2022-12-23T20:53:42.562Z,99161.03
2022-12-23T20:56:15.006Z,99162.78
2022-12-23T20:58:42.061Z,99166.72
2022-12-23T21:01:13.480Z,99171.00
2022-12-23T21:03:40.543Z,99178.81
2022-12-23T21:06:08.829Z,99182.47
2022-12-23T21:08:36.637Z,99182.97
2022-12-23T21:11:04.057Z,99177.25
2022-12-23T21:13:30.486Z,99184.44
2022-12-23T21:16:05.051Z,99183.88
2022-12-23T21:18:31.761Z,99183.28
2022-12-23T21:21:03.005Z,99195.06
2022-12-23T21:23:29.835Z,99190.41
2022-12-23T21:26:15.087Z,99195.81
2022-12-23T21:28:42.074Z,99199.91
2022-12-23T21:31:09.578Z,99206.84
2022-12-23T21:33:38.148Z,99209.72
2022-12-23T21:36:06.212Z,99200.41
2022-12-23T21:38:38.652Z,99206.00
2022-12-23T21:41:07.890Z,99210.25
2022-12-23T21:43:34.356Z,99221.63
2022-12-23T21:46:03.136Z,99230.28
2022-12-23T21:48:34.392Z,99222.72
2022-12-23T21:51:18.726Z,99234.78
2022-12-23T21:53:46.820Z,99238.88
2022-12-23T21:56:19.157Z,99248.22
2022-12-23T21:58:45.940Z,99249.09
2022-12-23T22:01:15.087Z,99236.75
2022-12-23T22:03:42.203Z,99237.88
2022-12-23T22:06:14.905Z,99247.56
2022-12-23T22:08:42.104Z,99248.84
2022-12-23T22:11:13.763Z,99246.69
2022-12-23T22:13:40.878Z,99253.06
2022-12-23T22:16:12.205Z,99261.00
2022-12-23T22:18:39.839Z,99271.69
2022-12-23T22:21:08.685Z,99258.66
2022-12-23T22:23:36.045Z,99267.47
2022-12-23T22:26:02.376Z,99267.19
2022-12-23T22:28:31.180Z,99268.25
2022-12-23T22:31:15.997Z,99271.03
2022-12-23T22:33:42.320Z,99267.22
2022-12-23T22:36:11.851Z,99279.50
2022-12-23T22:38:38.329Z,99270.44
2022-12-23T22:41:04.913Z,99278.44
2022-12-23T22:43:31.199Z,99276.84
2022-12-23T22:45:59.745Z,99282.53
2022-12-23T22:48:27.597Z,99286.41
2022-12-23T22:51:20.504Z,99285.91
2022-12-23T22:53:46.992Z,99289.25
2022-12-23T22:56:15.968Z,99281.28
2022-12-23T22:58:42.701Z,99282.72
2022-12-23T23:01:29.971Z,99281.13
2022-12-23T23:03:58.129Z,99282.25
2022-12-23T23:06:30.255Z,99277.16
2022-12-23T23:08:57.288Z,99289.63
2022-12-23T23:11:24.977Z,99292.78
2022-12-23T23:13:51.673Z,99293.13
2022-12-23T23:16:18.126Z,99282.81
2022-12-23T23:18:44.635Z,99297.59
2022-12-23T23:21:12.859Z,99298.56
2022-12-23T23:23:39.292Z,99293.94
2022-12-23T23:26:05.991Z,99301.28
2022-12-23T23:28:32.309Z,99310.34
2022-12-23T23:31:17.096Z,99315.63
2022-12-23T23:33:45.073Z,99309.72
2022-12-23T23:36:11.485Z,99306.88
2022-12-23T23:38:37.883Z,99307.50
2022-12-23T23:41:04.584Z,99319.63
2022-12-23T23:43:30.903Z,99320.09
2022-12-23T23:45:57.307Z,99326.78
2022-12-23T23:48:23.679Z,99329.03
2022-12-23T23:50:50.026Z,99333.00
2022-12-23T23:53:16.804Z,99334.59
2022-12-23T23:55:43.454Z,99344.66
2022-12-23T23:58:11.124Z,99343.50
